createdAt,value
2018-09-15T00:00:26.509Z,12.8
2018-09-15T00:10:25.739Z,12.7
2018-09-15T00:20:24.971Z,13
2018-09-15T00:30:24.201Z,13.1
2018-09-15T00:40:23.429Z,12.6
2018-09-15T00:50:22.663Z,13
2018-09-15T01:00:21.890Z,13.2
2018-09-15T01:10:21.124Z,13.1
2018-09-15T01:20:20.359Z,13
2018-09-15T01:30:19.597Z,12.8
2018-09-15T01:40:18.818Z,12.8
2018-09-15T01:50:18.049Z,12.6
2018-09-15T02:00:17.280Z,12.6
2018-09-15T02:10:16.513Z,12.8
2018-09-15T02:20:15.747Z,13.1
2018-09-15T02:30:14.980Z,12.5
2018-09-15T02:40:14.200Z,12.9
2018-09-15T02:50:13.427Z,13
2018-09-15T03:00:12.658Z,13.2
2018-09-15T03:10:11.897Z,12.4
2018-09-15T03:20:11.114Z,12.6
2018-09-15T03:30:10.342Z,12.7
2018-09-15T03:40:09.573Z,12.5
2018-09-15T03:50:08.797Z,12.6
2018-09-15T04:00:08.026Z,12.4
2018-09-15T04:10:07.258Z,13
2018-09-15T04:20:06.480Z,13
2018-09-15T04:30:05.710Z,13.1
2018-09-15T04:40:04.941Z,13.6
2018-09-15T04:50:04.165Z,14.7
2018-09-15T05:00:03.396Z,14.4
2018-09-15T05:10:02.618Z,14.4
2018-09-15T05:20:01.852Z,14.2
2018-09-15T05:30:01.081Z,14
2018-09-15T05:40:00.415Z,14.1
2018-09-15T05:49:59.537Z,14.7
2018-09-15T05:59:58.768Z,14.7
2018-09-15T06:09:57.997Z,14.7
2018-09-15T06:19:57.235Z,14.2
2018-09-15T06:29:56.459Z,14.2
2018-09-15T06:39:55.689Z,13.8
2018-09-15T06:49:54.926Z,14.4
2018-09-15T06:59:54.151Z,14.5
2018-09-15T07:09:53.381Z,14.7
2018-09-15T07:19:52.619Z,14.3
2018-09-15T07:29:51.850Z,14.6
2018-09-15T07:39:51.077Z,14.4
2018-09-15T07:49:50.305Z,14.3
2018-09-15T07:59:49.543Z,14.7
2018-09-15T08:09:48.784Z,14.3
2018-09-15T08:19:48.008Z,13.9
2018-09-15T08:29:47.241Z,14.4
2018-09-15T08:39:46.469Z,13.8
2018-09-15T08:49:45.705Z,14.1
2018-09-15T08:59:44.937Z,14.6
2018-09-15T09:09:44.170Z,14.5
2018-09-15T09:19:43.397Z,13.9
2018-09-15T09:29:42.637Z,14.4
2018-09-15T09:39:41.869Z,14.4
2018-09-15T09:49:41.098Z,14
2018-09-15T09:59:40.347Z,14.4
2018-09-15T10:09:39.566Z,14.5
2018-09-15T10:19:38.796Z,14.3
2018-09-15T10:29:38.035Z,13.8
2018-09-15T10:39:37.266Z,14.2
2018-09-15T10:49:36.503Z,14.4
2018-09-15T10:59:35.731Z,14.2
2018-09-15T11:09:34.960Z,14.6
2018-09-15T11:19:34.193Z,14.7
2018-09-15T11:29:33.433Z,14
2018-09-15T11:39:32.663Z,14.6
2018-09-15T11:49:31.904Z,14.3
2018-09-15T11:59:31.124Z,14.1
2018-09-15T12:09:30.357Z,13.9
2018-09-15T12:19:29.588Z,14
2018-09-15T12:29:28.824Z,14.2
2018-09-15T12:39:28.116Z,13.8
2018-09-15T12:49:27.287Z,14.7
2018-09-15T12:59:26.520Z,14.4
2018-09-15T13:09:25.753Z,14.5
2018-09-15T13:19:24.982Z,13.3
2018-09-15T13:29:24.263Z,13.8
2018-09-15T13:39:23.448Z,13.4
2018-09-15T13:49:22.678Z,12.9
2018-09-15T13:59:21.901Z,12.9
2018-09-15T14:09:21.184Z,13
2018-09-15T14:19:20.369Z,13.4
2018-09-15T14:29:19.604Z,13.2
2018-09-15T14:39:18.835Z,13.2
2018-09-15T14:49:18.068Z,13
2018-09-15T14:59:17.299Z,13.1
2018-09-15T15:09:16.534Z,12.8
2018-09-15T15:19:15.776Z,12.9
2018-09-15T15:29:15.007Z,13.1
2018-09-15T15:39:14.238Z,12.6
2018-09-15T15:49:13.467Z,12.8
2018-09-15T15:59:12.763Z,12.6
2018-09-15T16:09:11.936Z,12.9
2018-09-15T16:19:11.180Z,12.6
2018-09-15T16:29:10.408Z,13.1
2018-09-15T16:39:09.643Z,12.8
2018-09-15T16:49:08.922Z,13.1
2018-09-15T16:59:08.126Z,12.5
2018-09-15T17:09:07.407Z,13.2
2018-09-15T17:19:06.591Z,13.2
2018-09-15T17:29:05.828Z,12.6
2018-09-15T17:39:05.063Z,13.1
2018-09-15T17:49:04.298Z,13.1
2018-09-15T17:59:03.532Z,13.1
2018-09-15T18:09:02.769Z,12.9
2018-09-15T18:19:02.004Z,13.2
2018-09-15T18:29:01.240Z,13
2018-09-15T18:39:00.474Z,12.6
2018-09-15T18:48:59.718Z,12.6
2018-09-15T18:58:58.949Z,12.7
2018-09-15T19:08:58.233Z,13.1
2018-09-15T19:18:57.425Z,13.2
2018-09-15T19:28:56.658Z,13.2
2018-09-15T19:38:55.899Z,13.1
2018-09-15T19:48:55.125Z,12.7
2018-09-15T19:58:54.363Z,13.1
2018-09-15T20:08:53.593Z,12.7
2018-09-15T20:18:52.847Z,13.2
2018-09-15T20:28:52.059Z,13.1
2018-09-15T20:38:51.294Z,12.8
2018-09-15T20:48:50.531Z,13.1
2018-09-15T20:58:49.770Z,12.7
2018-09-15T21:08:49.009Z,12.4
2018-09-15T21:18:48.228Z,12.7
2018-09-15T21:28:47.463Z,13.1
2018-09-15T21:38:46.794Z,12.6
2018-09-15T21:48:45.933Z,13.2
2018-09-15T21:58:45.163Z,13
2018-09-15T22:08:44.396Z,12.8
2018-09-15T22:18:43.630Z,13.1
2018-09-15T22:28:42.880Z,12.8
2018-09-15T22:38:42.115Z,13.2
2018-09-15T22:48:41.349Z,12.5
2018-09-15T22:58:40.564Z,13
2018-09-15T23:08:39.796Z,13.1
2018-09-15T23:18:39.028Z,12.9
2018-09-15T23:28:38.262Z,13.2
2018-09-15T23:38:37.503Z,12.8
2018-09-15T23:48:36.742Z,13.1
2018-09-15T23:58:35.968Z,12.8
